sensor_id;sensor_type;location;lat;lon;timestamp;P1;durP1;ratioP1;P2;durP2;ratioP2
54853;SDS011;40747;49.480;8.658;2022-12-07T00:01:28;7.38;;;3.53;;
54853;SDS011;40747;49.480;8.658;2022-12-07T00:03:57;6.70;;;4.20;;
54853;SDS011;40747;49.480;8.658;2022-12-07T00:06:29;6.25;;;3.88;;
54853;SDS011;40747;49.480;8.658;2022-12-07T00:08:55;5.68;;;2.67;;
54853;SDS011;40747;49.480;8.658;2022-12-07T00:11:21;7.90;;;3.50;;
54853;SDS011;40747;49.480;8.658;2022-12-07T00:13:50;3.38;;;2.60;;
54853;SDS011;40747;49.480;8.658;2022-12-07T00:16:21;3.70;;;2.58;;
54853;SDS011;40747;49.480;8.658;2022-12-07T00:18:48;5.88;;;3.22;;
54853;SDS011;40747;49.480;8.658;2022-12-07T00:21:15;6.88;;;3.30;;
54853;SDS011;40747;49.480;8.658;2022-12-07T00:23:43;3.45;;;2.40;;
54853;SDS011;40747;49.480;8.658;2022-12-07T00:26:10;3.53;;;2.33;;
54853;SDS011;40747;49.480;8.658;2022-12-07T00:28:37;3.10;;;2.55;;
54853;SDS011;40747;49.480;8.658;2022-12-07T00:31:07;8.18;;;4.07;;
54853;SDS011;40747;49.480;8.658;2022-12-07T00:33:35;5.95;;;3.40;;
54853;SDS011;40747;49.480;8.658;2022-12-07T00:36:01;6.47;;;3.47;;
54853;SDS011;40747;49.480;8.658;2022-12-07T00:38:30;5.43;;;3.47;;
54853;SDS011;40747;49.480;8.658;2022-12-07T00:40:57;6.75;;;2.83;;
54853;SDS011;40747;49.480;8.658;2022-12-07T00:43:27;5.78;;;2.97;;
54853;SDS011;40747;49.480;8.658;2022-12-07T00:45:52;3.50;;;2.33;;
54853;SDS011;40747;49.480;8.658;2022-12-07T00:48:18;3.67;;;2.20;;
54853;SDS011;40747;49.480;8.658;2022-12-07T00:50:44;5.95;;;2.42;;
54853;SDS011;40747;49.480;8.658;2022-12-07T00:53:09;6.15;;;2.88;;
54853;SDS011;40747;49.480;8.658;2022-12-07T00:55:35;6.00;;;3.58;;
54853;SDS011;40747;49.480;8.658;2022-12-07T00:58:01;4.88;;;2.55;;
54853;SDS011;40747;49.480;8.658;2022-12-07T01:00:27;5.68;;;2.78;;
54853;SDS011;40747;49.480;8.658;2022-12-07T01:02:53;4.25;;;2.95;;
54853;SDS011;40747;49.480;8.658;2022-12-07T01:05:18;4.47;;;2.97;;
54853;SDS011;40747;49.480;8.658;2022-12-07T01:07:44;2.55;;;2.10;;
54853;SDS011;40747;49.480;8.658;2022-12-07T01:10:09;3.15;;;1.75;;
54853;SDS011;40747;49.480;8.658;2022-12-07T01:12:35;7.78;;;3.50;;
54853;SDS011;40747;49.480;8.658;2022-12-07T01:15:00;5.65;;;3.17;;
54853;SDS011;40747;49.480;8.658;2022-12-07T01:17:25;4.18;;;2.78;;
54853;SDS011;40747;49.480;8.658;2022-12-07T01:19:51;7.47;;;3.25;;
54853;SDS011;40747;49.480;8.658;2022-12-07T01:22:16;5.68;;;2.25;;
54853;SDS011;40747;49.480;8.658;2022-12-07T01:24:41;4.90;;;2.47;;
54853;SDS011;40747;49.480;8.658;2022-12-07T01:27:06;5.50;;;3.45;;
54853;SDS011;40747;49.480;8.658;2022-12-07T01:29:32;3.15;;;1.55;;
54853;SDS011;40747;49.480;8.658;2022-12-07T01:31:57;3.33;;;1.58;;
54853;SDS011;40747;49.480;8.658;2022-12-07T01:34:22;5.55;;;3.30;;
54853;SDS011;40747;49.480;8.658;2022-12-07T01:36:47;4.43;;;3.17;;
54853;SDS011;40747;49.480;8.658;2022-12-07T01:39:13;5.95;;;2.83;;
54853;SDS011;40747;49.480;8.658;2022-12-07T01:41:39;4.13;;;2.10;;
54853;SDS011;40747;49.480;8.658;2022-12-07T01:44:22;5.15;;;2.95;;
54853;SDS011;40747;49.480;8.658;2022-12-07T01:46:52;7.47;;;3.33;;
54853;SDS011;40747;49.480;8.658;2022-12-07T01:51:52;6.28;;;3.60;;
54853;SDS011;40747;49.480;8.658;2022-12-07T01:54:41;4.85;;;2.92;;
54853;SDS011;40747;49.480;8.658;2022-12-07T01:57:07;4.65;;;3.13;;
54853;SDS011;40747;49.480;8.658;2022-12-07T01:59:33;3.85;;;2.08;;
54853;SDS011;40747;49.480;8.658;2022-12-07T02:01:59;4.53;;;2.97;;
54853;SDS011;40747;49.480;8.658;2022-12-07T02:04:29;4.18;;;2.60;;
54853;SDS011;40747;49.480;8.658;2022-12-07T02:06:55;11.50;;;4.25;;
54853;SDS011;40747;49.480;8.658;2022-12-07T02:09:21;4.95;;;2.42;;
54853;SDS011;40747;49.480;8.658;2022-12-07T02:11:47;5.70;;;3.33;;
54853;SDS011;40747;49.480;8.658;2022-12-07T02:14:12;3.92;;;2.60;;
54853;SDS011;40747;49.480;8.658;2022-12-07T02:16:41;5.75;;;3.70;;
54853;SDS011;40747;49.480;8.658;2022-12-07T02:24:57;11.50;;;4.45;;
54853;SDS011;40747;49.480;8.658;2022-12-07T02:27:35;5.18;;;3.00;;
54853;SDS011;40747;49.480;8.658;2022-12-07T02:30:19;6.03;;;3.95;;
54853;SDS011;40747;49.480;8.658;2022-12-07T02:33:06;4.25;;;3.25;;
54853;SDS011;40747;49.480;8.658;2022-12-07T02:35:40;4.40;;;3.28;;
54853;SDS011;40747;49.480;8.658;2022-12-07T02:38:14;5.82;;;3.17;;
54853;SDS011;40747;49.480;8.658;2022-12-07T02:43:16;4.13;;;3.08;;
54853;SDS011;40747;49.480;8.658;2022-12-07T02:45:46;5.43;;;2.72;;
54853;SDS011;40747;49.480;8.658;2022-12-07T02:48:15;7.43;;;3.40;;
54853;SDS011;40747;49.480;8.658;2022-12-07T02:50:45;4.68;;;3.20;;
54853;SDS011;40747;49.480;8.658;2022-12-07T02:56:28;4.28;;;2.67;;
54853;SDS011;40747;49.480;8.658;2022-12-07T03:02:21;4.32;;;3.08;;
54853;SDS011;40747;49.480;8.658;2022-12-07T03:05:03;4.57;;;2.92;;
54853;SDS011;40747;49.480;8.658;2022-12-07T03:07:49;4.90;;;3.42;;
54853;SDS011;40747;49.480;8.658;2022-12-07T03:18:46;3.45;;;2.00;;
54853;SDS011;40747;49.480;8.658;2022-12-07T03:21:18;3.97;;;2.97;;
54853;SDS011;40747;49.480;8.658;2022-12-07T03:23:47;8.32;;;3.33;;
54853;SDS011;40747;49.480;8.658;2022-12-07T03:26:16;5.15;;;3.03;;
54853;SDS011;40747;49.480;8.658;2022-12-07T03:28:45;5.90;;;3.17;;
54853;SDS011;40747;49.480;8.658;2022-12-07T03:31:21;5.37;;;2.73;;
54853;SDS011;40747;49.480;8.658;2022-12-07T03:33:56;4.45;;;2.97;;
54853;SDS011;40747;49.480;8.658;2022-12-07T03:36:31;5.28;;;2.38;;
54853;SDS011;40747;49.480;8.658;2022-12-07T03:39:07;4.47;;;3.15;;
54853;SDS011;40747;49.480;8.658;2022-12-07T03:41:37;6.10;;;3.08;;
54853;SDS011;40747;49.480;8.658;2022-12-07T03:44:03;7.40;;;3.72;;
54853;SDS011;40747;49.480;8.658;2022-12-07T03:49:25;5.07;;;3.33;;
54853;SDS011;40747;49.480;8.658;2022-12-07T03:54:51;3.78;;;2.78;;
54853;SDS011;40747;49.480;8.658;2022-12-07T03:57:33;4.93;;;2.70;;
54853;SDS011;40747;49.480;8.658;2022-12-07T04:00:00;4.57;;;3.15;;
54853;SDS011;40747;49.480;8.658;2022-12-07T04:02:26;3.50;;;2.33;;
54853;SDS011;40747;49.480;8.658;2022-12-07T04:04:53;5.68;;;3.20;;
54853;SDS011;40747;49.480;8.658;2022-12-07T04:07:19;9.85;;;4.03;;
54853;SDS011;40747;49.480;8.658;2022-12-07T04:09:45;5.82;;;3.47;;
54853;SDS011;40747;49.480;8.658;2022-12-07T04:12:10;3.97;;;2.95;;
54853;SDS011;40747;49.480;8.658;2022-12-07T04:14:35;4.57;;;2.65;;
54853;SDS011;40747;49.480;8.658;2022-12-07T04:17:00;10.70;;;3.08;;
54853;SDS011;40747;49.480;8.658;2022-12-07T04:19:30;10.10;;;3.17;;
54853;SDS011;40747;49.480;8.658;2022-12-07T04:21:57;6.35;;;3.25;;
54853;SDS011;40747;49.480;8.658;2022-12-07T04:24:24;7.55;;;3.40;;
54853;SDS011;40747;49.480;8.658;2022-12-07T04:26:50;4.57;;;2.60;;
54853;SDS011;40747;49.480;8.658;2022-12-07T04:29:16;5.93;;;3.38;;
54853;SDS011;40747;49.480;8.658;2022-12-07T04:31:42;5.78;;;2.58;;
54853;SDS011;40747;49.480;8.658;2022-12-07T04:34:08;3.80;;;3.20;;
54853;SDS011;40747;49.480;8.658;2022-12-07T04:36:34;4.85;;;2.60;;
54853;SDS011;40747;49.480;8.658;2022-12-07T04:39:00;5.50;;;3.58;;
54853;SDS011;40747;49.480;8.658;2022-12-07T04:41:26;5.90;;;2.28;;
54853;SDS011;40747;49.480;8.658;2022-12-07T04:43:53;5.45;;;3.25;;
54853;SDS011;40747;49.480;8.658;2022-12-07T04:46:20;5.18;;;3.55;;
54853;SDS011;40747;49.480;8.658;2022-12-07T04:48:45;5.90;;;3.13;;
54853;SDS011;40747;49.480;8.658;2022-12-07T04:51:10;5.13;;;3.17;;
54853;SDS011;40747;49.480;8.658;2022-12-07T04:53:36;6.32;;;2.78;;
54853;SDS011;40747;49.480;8.658;2022-12-07T04:56:01;3.85;;;2.85;;
54853;SDS011;40747;49.480;8.658;2022-12-07T04:58:26;5.10;;;3.22;;
54853;SDS011;40747;49.480;8.658;2022-12-07T05:00:53;5.47;;;3.90;;
54853;SDS011;40747;49.480;8.658;2022-12-07T05:03:20;4.20;;;3.08;;
54853;SDS011;40747;49.480;8.658;2022-12-07T05:05:45;3.17;;;2.22;;
54853;SDS011;40747;49.480;8.658;2022-12-07T05:08:10;5.80;;;3.20;;
54853;SDS011;40747;49.480;8.658;2022-12-07T05:10:35;6.07;;;3.40;;
54853;SDS011;40747;49.480;8.658;2022-12-07T05:13:01;5.40;;;2.40;;
54853;SDS011;40747;49.480;8.658;2022-12-07T05:15:26;4.93;;;2.70;;
54853;SDS011;40747;49.480;8.658;2022-12-07T05:17:51;7.95;;;3.05;;
54853;SDS011;40747;49.480;8.658;2022-12-07T05:20:17;5.00;;;2.90;;
54853;SDS011;40747;49.480;8.658;2022-12-07T05:22:42;5.20;;;2.95;;
54853;SDS011;40747;49.480;8.658;2022-12-07T05:25:08;8.98;;;3.33;;
54853;SDS011;40747;49.480;8.658;2022-12-07T05:27:33;10.43;;;4.80;;
54853;SDS011;40747;49.480;8.658;2022-12-07T05:29:58;9.27;;;4.68;;
54853;SDS011;40747;49.480;8.658;2022-12-07T05:32:24;12.07;;;5.65;;
54853;SDS011;40747;49.480;8.658;2022-12-07T05:34:49;8.93;;;4.75;;
54853;SDS011;40747;49.480;8.658;2022-12-07T05:37:14;12.20;;;7.10;;
54853;SDS011;40747;49.480;8.658;2022-12-07T05:39:40;14.30;;;7.18;;
54853;SDS011;40747;49.480;8.658;2022-12-07T05:42:08;14.73;;;7.25;;
54853;SDS011;40747;49.480;8.658;2022-12-07T05:44:38;9.88;;;5.85;;
54853;SDS011;40747;49.480;8.658;2022-12-07T05:47:04;13.45;;;6.32;;
54853;SDS011;40747;49.480;8.658;2022-12-07T05:49:30;17.60;;;8.32;;
54853;SDS011;40747;49.480;8.658;2022-12-07T05:51:55;14.70;;;6.50;;
54853;SDS011;40747;49.480;8.658;2022-12-07T05:54:21;17.50;;;8.38;;
54853;SDS011;40747;49.480;8.658;2022-12-07T05:56:46;12.70;;;7.60;;
54853;SDS011;40747;49.480;8.658;2022-12-07T05:59:11;11.38;;;6.22;;
54853;SDS011;40747;49.480;8.658;2022-12-07T06:01:58;14.73;;;6.50;;
54853;SDS011;40747;49.480;8.658;2022-12-07T06:04:28;15.38;;;7.00;;
54853;SDS011;40747;49.480;8.658;2022-12-07T06:06:55;20.00;;;8.70;;
54853;SDS011;40747;49.480;8.658;2022-12-07T06:09:21;13.52;;;6.30;;
54853;SDS011;40747;49.480;8.658;2022-12-07T06:11:48;13.85;;;7.03;;
54853;SDS011;40747;49.480;8.658;2022-12-07T06:14:31;19.85;;;8.07;;
54853;SDS011;40747;49.480;8.658;2022-12-07T06:16:57;15.20;;;7.80;;
54853;SDS011;40747;49.480;8.658;2022-12-07T06:19:23;12.88;;;7.25;;
54853;SDS011;40747;49.480;8.658;2022-12-07T06:21:48;14.27;;;7.00;;
54853;SDS011;40747;49.480;8.658;2022-12-07T06:24:14;14.13;;;7.60;;
54853;SDS011;40747;49.480;8.658;2022-12-07T06:26:41;16.40;;;6.95;;
54853;SDS011;40747;49.480;8.658;2022-12-07T06:29:07;17.63;;;9.00;;
54853;SDS011;40747;49.480;8.658;2022-12-07T06:31:33;10.65;;;5.40;;
54853;SDS011;40747;49.480;8.658;2022-12-07T06:34:02;17.35;;;9.13;;
54853;SDS011;40747;49.480;8.658;2022-12-07T06:36:29;3.15;;;2.17;;
54853;SDS011;40747;49.480;8.658;2022-12-07T06:38:55;4.13;;;3.42;;
54853;SDS011;40747;49.480;8.658;2022-12-07T06:41:21;2.80;;;2.38;;
54853;SDS011;40747;49.480;8.658;2022-12-07T06:43:46;3.15;;;1.73;;
54853;SDS011;40747;49.480;8.658;2022-12-07T06:46:12;2.65;;;2.38;;
54853;SDS011;40747;49.480;8.658;2022-12-07T06:48:37;8.45;;;4.53;;
54853;SDS011;40747;49.480;8.658;2022-12-07T06:51:03;7.38;;;3.95;;
54853;SDS011;40747;49.480;8.658;2022-12-07T06:53:28;6.03;;;3.72;;
54853;SDS011;40747;49.480;8.658;2022-12-07T06:55:54;7.97;;;3.58;;
54853;SDS011;40747;49.480;8.658;2022-12-07T06:58:19;4.00;;;2.47;;
54853;SDS011;40747;49.480;8.658;2022-12-07T07:00:44;5.55;;;3.80;;
54853;SDS011;40747;49.480;8.658;2022-12-07T07:03:10;4.35;;;2.83;;
54853;SDS011;40747;49.480;8.658;2022-12-07T07:05:35;7.25;;;5.15;;
54853;SDS011;40747;49.480;8.658;2022-12-07T07:08:01;6.38;;;4.30;;
54853;SDS011;40747;49.480;8.658;2022-12-07T07:10:27;3.03;;;2.38;;
54853;SDS011;40747;49.480;8.658;2022-12-07T07:12:52;2.17;;;1.98;;
54853;SDS011;40747;49.480;8.658;2022-12-07T07:15:18;4.32;;;3.17;;
54853;SDS011;40747;49.480;8.658;2022-12-07T07:17:43;3.65;;;2.42;;
54853;SDS011;40747;49.480;8.658;2022-12-07T07:20:08;7.13;;;2.97;;
54853;SDS011;40747;49.480;8.658;2022-12-07T07:22:34;3.65;;;2.97;;
54853;SDS011;40747;49.480;8.658;2022-12-07T07:24:59;4.85;;;3.50;;
54853;SDS011;40747;49.480;8.658;2022-12-07T07:27:25;4.00;;;3.17;;
54853;SDS011;40747;49.480;8.658;2022-12-07T07:29:50;6.45;;;2.92;;
54853;SDS011;40747;49.480;8.658;2022-12-07T07:32:15;5.03;;;3.17;;
54853;SDS011;40747;49.480;8.658;2022-12-07T07:34:41;3.22;;;2.92;;
54853;SDS011;40747;49.480;8.658;2022-12-07T07:37:06;5.63;;;3.65;;
54853;SDS011;40747;49.480;8.658;2022-12-07T07:39:31;8.43;;;4.90;;
54853;SDS011;40747;49.480;8.658;2022-12-07T07:41:57;7.65;;;4.60;;
54853;SDS011;40747;49.480;8.658;2022-12-07T07:44:22;3.67;;;3.20;;
54853;SDS011;40747;49.480;8.658;2022-12-07T07:46:47;3.17;;;2.42;;
54853;SDS011;40747;49.480;8.658;2022-12-07T07:49:12;5.70;;;3.17;;
54853;SDS011;40747;49.480;8.658;2022-12-07T07:51:38;8.20;;;4.85;;
54853;SDS011;40747;49.480;8.658;2022-12-07T07:54:03;7.63;;;4.28;;
54853;SDS011;40747;49.480;8.658;2022-12-07T07:56:29;8.55;;;4.75;;
54853;SDS011;40747;49.480;8.658;2022-12-07T07:58:54;7.90;;;3.97;;
54853;SDS011;40747;49.480;8.658;2022-12-07T08:01:19;8.15;;;3.63;;
54853;SDS011;40747;49.480;8.658;2022-12-07T08:03:48;10.77;;;3.97;;
54853;SDS011;40747;49.480;8.658;2022-12-07T08:06:14;6.40;;;4.05;;
54853;SDS011;40747;49.480;8.658;2022-12-07T08:08:39;6.03;;;3.40;;
54853;SDS011;40747;49.480;8.658;2022-12-07T08:11:08;6.45;;;3.55;;
54853;SDS011;40747;49.480;8.658;2022-12-07T08:13:36;7.30;;;3.22;;
54853;SDS011;40747;49.480;8.658;2022-12-07T08:16:06;2.92;;;2.33;;
54853;SDS011;40747;49.480;8.658;2022-12-07T08:18:37;8.13;;;3.92;;
54853;SDS011;40747;49.480;8.658;2022-12-07T08:21:04;6.90;;;3.65;;
54853;SDS011;40747;49.480;8.658;2022-12-07T08:23:30;7.57;;;4.75;;
54853;SDS011;40747;49.480;8.658;2022-12-07T08:26:00;7.53;;;4.97;;
54853;SDS011;40747;49.480;8.658;2022-12-07T08:28:29;8.45;;;4.35;;
54853;SDS011;40747;49.480;8.658;2022-12-07T08:30:59;6.03;;;3.97;;
54853;SDS011;40747;49.480;8.658;2022-12-07T08:33:24;7.90;;;4.93;;
54853;SDS011;40747;49.480;8.658;2022-12-07T08:35:50;6.78;;;3.80;;
54853;SDS011;40747;49.480;8.658;2022-12-07T08:38:16;9.55;;;4.40;;
54853;SDS011;40747;49.480;8.658;2022-12-07T08:40:41;5.38;;;3.25;;
54853;SDS011;40747;49.480;8.658;2022-12-07T08:43:06;7.93;;;3.88;;
54853;SDS011;40747;49.480;8.658;2022-12-07T08:45:31;12.85;;;3.72;;
54853;SDS011;40747;49.480;8.658;2022-12-07T08:48:02;6.50;;;4.32;;
54853;SDS011;40747;49.480;8.658;2022-12-07T08:50:31;5.47;;;4.25;;
54853;SDS011;40747;49.480;8.658;2022-12-07T08:52:57;6.38;;;4.03;;
54853;SDS011;40747;49.480;8.658;2022-12-07T08:55:23;6.20;;;3.30;;
54853;SDS011;40747;49.480;8.658;2022-12-07T08:57:49;7.70;;;4.63;;
54853;SDS011;40747;49.480;8.658;2022-12-07T09:00:16;6.68;;;5.00;;
54853;SDS011;40747;49.480;8.658;2022-12-07T09:02:44;7.70;;;4.18;;
54853;SDS011;40747;49.480;8.658;2022-12-07T09:05:10;11.43;;;5.07;;
54853;SDS011;40747;49.480;8.658;2022-12-07T09:07:36;6.03;;;4.32;;
54853;SDS011;40747;49.480;8.658;2022-12-07T09:10:03;6.65;;;3.85;;
54853;SDS011;40747;49.480;8.658;2022-12-07T09:12:29;8.48;;;3.60;;
54853;SDS011;40747;49.480;8.658;2022-12-07T09:14:55;6.30;;;4.07;;
54853;SDS011;40747;49.480;8.658;2022-12-07T09:17:20;6.63;;;4.13;;
54853;SDS011;40747;49.480;8.658;2022-12-07T09:19:46;7.35;;;3.47;;
54853;SDS011;40747;49.480;8.658;2022-12-07T09:22:11;19.33;;;3.70;;
54853;SDS011;40747;49.480;8.658;2022-12-07T09:24:36;4.35;;;3.08;;
54853;SDS011;40747;49.480;8.658;2022-12-07T09:27:02;10.85;;;3.88;;
54853;SDS011;40747;49.480;8.658;2022-12-07T09:29:27;6.78;;;3.75;;
54853;SDS011;40747;49.480;8.658;2022-12-07T09:31:52;6.72;;;3.17;;
54853;SDS011;40747;49.480;8.658;2022-12-07T09:34:18;9.95;;;5.43;;
54853;SDS011;40747;49.480;8.658;2022-12-07T09:36:43;9.18;;;4.97;;
54853;SDS011;40747;49.480;8.658;2022-12-07T09:39:09;5.32;;;3.35;;
54853;SDS011;40747;49.480;8.658;2022-12-07T09:41:36;8.20;;;5.82;;
54853;SDS011;40747;49.480;8.658;2022-12-07T09:44:05;9.02;;;4.38;;
54853;SDS011;40747;49.480;8.658;2022-12-07T09:46:37;10.25;;;3.88;;
54853;SDS011;40747;49.480;8.658;2022-12-07T09:49:05;7.65;;;4.15;;
54853;SDS011;40747;49.480;8.658;2022-12-07T09:51:41;8.27;;;4.72;;
54853;SDS011;40747;49.480;8.658;2022-12-07T09:54:07;9.70;;;4.85;;
54853;SDS011;40747;49.480;8.658;2022-12-07T09:56:36;7.43;;;4.30;;
54853;SDS011;40747;49.480;8.658;2022-12-07T09:59:02;8.88;;;4.22;;
54853;SDS011;40747;49.480;8.658;2022-12-07T10:01:28;8.30;;;4.57;;
54853;SDS011;40747;49.480;8.658;2022-12-07T10:03:59;9.00;;;5.88;;
54853;SDS011;40747;49.480;8.658;2022-12-07T10:06:37;9.60;;;5.22;;
54853;SDS011;40747;49.480;8.658;2022-12-07T10:09:08;12.65;;;5.93;;
54853;SDS011;40747;49.480;8.658;2022-12-07T10:11:35;10.05;;;4.70;;
54853;SDS011;40747;49.480;8.658;2022-12-07T10:14:27;6.78;;;3.92;;
54853;SDS011;40747;49.480;8.658;2022-12-07T10:16:54;7.18;;;4.70;;
54853;SDS011;40747;49.480;8.658;2022-12-07T10:19:30;8.25;;;4.70;;
54853;SDS011;40747;49.480;8.658;2022-12-07T10:22:15;7.57;;;4.97;;
54853;SDS011;40747;49.480;8.658;2022-12-07T10:24:42;6.97;;;4.30;;
54853;SDS011;40747;49.480;8.658;2022-12-07T10:27:21;9.25;;;4.68;;
54853;SDS011;40747;49.480;8.658;2022-12-07T10:29:51;6.90;;;4.25;;
54853;SDS011;40747;49.480;8.658;2022-12-07T10:34:43;8.50;;;4.00;;
54853;SDS011;40747;49.480;8.658;2022-12-07T10:39:50;7.40;;;3.55;;
54853;SDS011;40747;49.480;8.658;2022-12-07T10:44:44;8.80;;;4.20;;
54853;SDS011;40747;49.480;8.658;2022-12-07T10:55:47;7.32;;;4.05;;
54853;SDS011;40747;49.480;8.658;2022-12-07T11:01:33;8.80;;;5.10;;
54853;SDS011;40747;49.480;8.658;2022-12-07T11:07:10;7.40;;;3.73;;
54853;SDS011;40747;49.480;8.658;2022-12-07T11:15:46;5.88;;;4.07;;
54853;SDS011;40747;49.480;8.658;2022-12-07T11:18:41;7.40;;;4.03;;
54853;SDS011;40747;49.480;8.658;2022-12-07T11:21:24;9.13;;;4.47;;
54853;SDS011;40747;49.480;8.658;2022-12-07T11:26:50;6.55;;;4.15;;
54853;SDS011;40747;49.480;8.658;2022-12-07T11:32:14;8.38;;;4.53;;
54853;SDS011;40747;49.480;8.658;2022-12-07T11:37:31;7.63;;;4.38;;
54853;SDS011;40747;49.480;8.658;2022-12-07T11:40:03;10.75;;;4.35;;
54853;SDS011;40747;49.480;8.658;2022-12-07T11:42:38;6.80;;;4.57;;
54853;SDS011;40747;49.480;8.658;2022-12-07T11:45:17;11.52;;;6.28;;
54853;SDS011;40747;49.480;8.658;2022-12-07T11:47:48;8.93;;;5.28;;
54853;SDS011;40747;49.480;8.658;2022-12-07T11:53:03;8.75;;;4.47;;
54853;SDS011;40747;49.480;8.658;2022-12-07T12:03:41;15.65;;;5.10;;
54853;SDS011;40747;49.480;8.658;2022-12-07T12:06:10;9.15;;;5.40;;
54853;SDS011;40747;49.480;8.658;2022-12-07T12:08:39;7.28;;;4.95;;
54853;SDS011;40747;49.480;8.658;2022-12-07T12:14:18;10.57;;;6.18;;
54853;SDS011;40747;49.480;8.658;2022-12-07T12:19:25;11.38;;;5.30;;
54853;SDS011;40747;49.480;8.658;2022-12-07T12:22:02;9.63;;;6.63;;
54853;SDS011;40747;49.480;8.658;2022-12-07T12:24:35;10.25;;;4.88;;
54853;SDS011;40747;49.480;8.658;2022-12-07T12:27:05;7.82;;;4.80;;
54853;SDS011;40747;49.480;8.658;2022-12-07T12:29:38;9.75;;;5.22;;
54853;SDS011;40747;49.480;8.658;2022-12-07T12:32:07;8.32;;;5.20;;
54853;SDS011;40747;49.480;8.658;2022-12-07T12:34:40;9.93;;;5.25;;
54853;SDS011;40747;49.480;8.658;2022-12-07T12:40:41;11.05;;;6.22;;
54853;SDS011;40747;49.480;8.658;2022-12-07T12:42:56;11.25;;;5.50;;
54853;SDS011;40747;49.480;8.658;2022-12-07T12:45:27;11.85;;;6.07;;
54853;SDS011;40747;49.480;8.658;2022-12-07T12:48:00;8.65;;;4.68;;
54853;SDS011;40747;49.480;8.658;2022-12-07T12:53:32;9.27;;;5.13;;
54853;SDS011;40747;49.480;8.658;2022-12-07T12:58:37;11.07;;;5.95;;
54853;SDS011;40747;49.480;8.658;2022-12-07T13:06:54;5.20;;;3.58;;
54853;SDS011;40747;49.480;8.658;2022-12-07T13:09:24;7.80;;;4.30;;
54853;SDS011;40747;49.480;8.658;2022-12-07T13:11:56;9.50;;;4.88;;
54853;SDS011;40747;49.480;8.658;2022-12-07T13:17:00;6.53;;;3.50;;
54853;SDS011;40747;49.480;8.658;2022-12-07T13:22:27;6.72;;;3.90;;
54853;SDS011;40747;49.480;8.658;2022-12-07T13:25:17;8.13;;;3.97;;
54853;SDS011;40747;49.480;8.658;2022-12-07T13:30:23;5.47;;;3.38;;
54853;SDS011;40747;49.480;8.658;2022-12-07T13:32:52;5.85;;;3.67;;
54853;SDS011;40747;49.480;8.658;2022-12-07T13:37:59;11.90;;;4.57;;
54853;SDS011;40747;49.480;8.658;2022-12-07T13:40:27;6.72;;;3.92;;
54853;SDS011;40747;49.480;8.658;2022-12-07T13:43:03;7.32;;;3.13;;
54853;SDS011;40747;49.480;8.658;2022-12-07T13:45:31;6.50;;;2.75;;
54853;SDS011;40747;49.480;8.658;2022-12-07T13:48:23;10.25;;;4.93;;
54853;SDS011;40747;49.480;8.658;2022-12-07T13:50:56;8.95;;;3.28;;
54853;SDS011;40747;49.480;8.658;2022-12-07T13:53:23;10.85;;;4.82;;
54853;SDS011;40747;49.480;8.658;2022-12-07T13:55:49;5.40;;;3.70;;
54853;SDS011;40747;49.480;8.658;2022-12-07T13:58:14;7.65;;;4.28;;
54853;SDS011;40747;49.480;8.658;2022-12-07T14:00:40;7.38;;;4.95;;
54853;SDS011;40747;49.480;8.658;2022-12-07T14:05:39;11.20;;;4.60;;
54853;SDS011;40747;49.480;8.658;2022-12-07T14:08:21;4.50;;;3.33;;
54853;SDS011;40747;49.480;8.658;2022-12-07T14:13:32;6.38;;;3.72;;
54853;SDS011;40747;49.480;8.658;2022-12-07T14:16:00;4.05;;;2.35;;
54853;SDS011;40747;49.480;8.658;2022-12-07T14:18:28;2.90;;;2.33;;
54853;SDS011;40747;49.480;8.658;2022-12-07T14:23:34;11.93;;;3.47;;
54853;SDS011;40747;49.480;8.658;2022-12-07T14:26:05;3.35;;;2.42;;
54853;SDS011;40747;49.480;8.658;2022-12-07T14:28:38;3.40;;;2.42;;
54853;SDS011;40747;49.480;8.658;2022-12-07T14:31:23;2.95;;;2.20;;
54853;SDS011;40747;49.480;8.658;2022-12-07T14:33:49;5.03;;;2.90;;
54853;SDS011;40747;49.480;8.658;2022-12-07T14:36:15;4.72;;;2.60;;
54853;SDS011;40747;49.480;8.658;2022-12-07T14:38:41;9.82;;;3.40;;
54853;SDS011;40747;49.480;8.658;2022-12-07T14:41:10;6.88;;;2.55;;
54853;SDS011;40747;49.480;8.658;2022-12-07T14:43:59;4.80;;;2.53;;
54853;SDS011;40747;49.480;8.658;2022-12-07T14:46:25;5.38;;;3.53;;
54853;SDS011;40747;49.480;8.658;2022-12-07T14:48:50;6.72;;;2.70;;
54853;SDS011;40747;49.480;8.658;2022-12-07T14:51:15;3.78;;;2.63;;
54853;SDS011;40747;49.480;8.658;2022-12-07T14:53:42;5.32;;;3.45;;
54853;SDS011;40747;49.480;8.658;2022-12-07T14:56:11;6.68;;;4.10;;
54853;SDS011;40747;49.480;8.658;2022-12-07T14:58:36;4.85;;;3.58;;
54853;SDS011;40747;49.480;8.658;2022-12-07T15:01:01;5.20;;;3.20;;
54853;SDS011;40747;49.480;8.658;2022-12-07T15:03:27;7.28;;;4.35;;
54853;SDS011;40747;49.480;8.658;2022-12-07T15:05:52;8.40;;;4.00;;
54853;SDS011;40747;49.480;8.658;2022-12-07T15:08:18;6.07;;;4.00;;
54853;SDS011;40747;49.480;8.658;2022-12-07T15:10:43;5.78;;;4.10;;
54853;SDS011;40747;49.480;8.658;2022-12-07T15:13:08;4.25;;;2.50;;
54853;SDS011;40747;49.480;8.658;2022-12-07T15:15:53;5.78;;;1.52;;
54853;SDS011;40747;49.480;8.658;2022-12-07T15:18:19;3.55;;;2.05;;
54853;SDS011;40747;49.480;8.658;2022-12-07T15:20:46;4.45;;;1.88;;
54853;SDS011;40747;49.480;8.658;2022-12-07T15:23:12;4.80;;;2.58;;
54853;SDS011;40747;49.480;8.658;2022-12-07T15:25:44;4.43;;;3.15;;
54853;SDS011;40747;49.480;8.658;2022-12-07T15:28:11;6.68;;;3.85;;
54853;SDS011;40747;49.480;8.658;2022-12-07T15:30:37;4.80;;;3.67;;
54853;SDS011;40747;49.480;8.658;2022-12-07T15:33:04;4.00;;;3.30;;
54853;SDS011;40747;49.480;8.658;2022-12-07T15:35:32;4.13;;;3.13;;
54853;SDS011;40747;49.480;8.658;2022-12-07T15:37:57;5.43;;;3.85;;
54853;SDS011;40747;49.480;8.658;2022-12-07T15:40:23;7.13;;;3.10;;
54853;SDS011;40747;49.480;8.658;2022-12-07T15:42:48;11.25;;;3.92;;
54853;SDS011;40747;49.480;8.658;2022-12-07T15:45:13;10.30;;;5.20;;
54853;SDS011;40747;49.480;8.658;2022-12-07T15:47:40;10.13;;;6.45;;
54853;SDS011;40747;49.480;8.658;2022-12-07T15:50:07;12.30;;;8.20;;
54853;SDS011;40747;49.480;8.658;2022-12-07T15:52:35;6.38;;;4.90;;
54853;SDS011;40747;49.480;8.658;2022-12-07T15:55:01;12.70;;;8.98;;
54853;SDS011;40747;49.480;8.658;2022-12-07T15:57:31;11.70;;;7.30;;
54853;SDS011;40747;49.480;8.658;2022-12-07T15:59:57;9.15;;;4.97;;
54853;SDS011;40747;49.480;8.658;2022-12-07T16:02:22;7.03;;;4.65;;
54853;SDS011;40747;49.480;8.658;2022-12-07T16:04:49;11.77;;;7.15;;
54853;SDS011;40747;49.480;8.658;2022-12-07T16:07:15;12.05;;;5.70;;
54853;SDS011;40747;49.480;8.658;2022-12-07T16:09:44;10.90;;;7.05;;
54853;SDS011;40747;49.480;8.658;2022-12-07T16:12:10;14.65;;;6.75;;
54853;SDS011;40747;49.480;8.658;2022-12-07T16:14:36;13.80;;;8.07;;
54853;SDS011;40747;49.480;8.658;2022-12-07T16:17:02;9.75;;;5.85;;
54853;SDS011;40747;49.480;8.658;2022-12-07T16:19:29;12.15;;;6.40;;
54853;SDS011;40747;49.480;8.658;2022-12-07T16:21:55;18.75;;;8.60;;
54853;SDS011;40747;49.480;8.658;2022-12-07T16:24:21;9.25;;;5.63;;
54853;SDS011;40747;49.480;8.658;2022-12-07T16:26:46;8.02;;;5.72;;
54853;SDS011;40747;49.480;8.658;2022-12-07T16:29:12;9.32;;;5.45;;
54853;SDS011;40747;49.480;8.658;2022-12-07T16:31:38;17.20;;;8.68;;
54853;SDS011;40747;49.480;8.658;2022-12-07T16:34:04;11.07;;;7.30;;
54853;SDS011;40747;49.480;8.658;2022-12-07T16:36:29;17.90;;;8.10;;
54853;SDS011;40747;49.480;8.658;2022-12-07T16:38:54;14.75;;;9.07;;
54853;SDS011;40747;49.480;8.658;2022-12-07T16:41:20;18.00;;;10.10;;
54853;SDS011;40747;49.480;8.658;2022-12-07T16:43:45;15.85;;;8.45;;
54853;SDS011;40747;49.480;8.658;2022-12-07T16:46:11;14.82;;;7.05;;
54853;SDS011;40747;49.480;8.658;2022-12-07T16:48:36;13.57;;;8.10;;
54853;SDS011;40747;49.480;8.658;2022-12-07T16:51:04;16.73;;;8.45;;